sensor_id;sensor_type;location;lat;lon;timestamp;pressure;altitude;pressure_sealevel;temperature;humidity
35848;BME280;22332;51.954;20.118;2022-09-17T00:00:55;98892.16;;;9.95;74.12
35848;BME280;22332;51.954;20.118;2022-09-17T00:04:08;98893.27;;;9.92;74.28
35848;BME280;22332;51.954;20.118;2022-09-17T00:07:14;98894.13;;;9.91;74.11
35848;BME280;22332;51.954;20.118;2022-09-17T00:10:20;98896.95;;;9.91;74.27
35848;BME280;22332;51.954;20.118;2022-09-17T00:13:26;98897.70;;;9.92;74.12
35848;BME280;22332;51.954;20.118;2022-09-17T00:16:33;98898.52;;;9.92;74.27
35848;BME280;22332;51.954;20.118;2022-09-17T00:19:39;98900.20;;;9.92;74.06
35848;BME280;22332;51.954;20.118;2022-09-17T00:22:44;98896.44;;;9.89;74.38
35848;BME280;22332;51.954;20.118;2022-09-17T00:25:50;98897.41;;;9.86;74.43
35848;BME280;22332;51.954;20.118;2022-09-17T00:28:56;98899.41;;;9.82;74.58
35848;BME280;22332;51.954;20.118;2022-09-17T00:32:02;98897.23;;;9.79;74.35
35848;BME280;22332;51.954;20.118;2022-09-17T00:35:08;98893.10;;;9.76;74.53
35848;BME280;22332;51.954;20.118;2022-09-17T00:38:14;98892.98;;;9.77;74.85
35848;BME280;22332;51.954;20.118;2022-09-17T00:41:22;98895.69;;;9.80;74.78
35848;BME280;22332;51.954;20.118;2022-09-17T00:44:44;98899.56;;;9.80;74.78
35848;BME280;22332;51.954;20.118;2022-09-17T00:47:56;98901.84;;;9.78;74.87
35848;BME280;22332;51.954;20.118;2022-09-17T00:51:02;98902.52;;;9.76;75.11
35848;BME280;22332;51.954;20.118;2022-09-17T00:54:10;98906.38;;;9.72;74.87
35848;BME280;22332;51.954;20.118;2022-09-17T00:57:17;98905.34;;;9.68;75.19
35848;BME280;22332;51.954;20.118;2022-09-17T01:00:24;98909.27;;;9.68;75.12
35848;BME280;22332;51.954;20.118;2022-09-17T01:03:30;98908.59;;;9.69;75.18
35848;BME280;22332;51.954;20.118;2022-09-17T01:06:42;98908.44;;;9.70;75.02
35848;BME280;22332;51.954;20.118;2022-09-17T01:09:54;98904.85;;;9.70;75.18
35848;BME280;22332;51.954;20.118;2022-09-17T01:13:15;98907.67;;;9.67;75.24
35848;BME280;22332;51.954;20.118;2022-09-17T01:16:30;98911.14;;;9.67;75.44
35848;BME280;22332;51.954;20.118;2022-09-17T01:23:37;98906.77;;;9.58;75.69
35848;BME280;22332;51.954;20.118;2022-09-17T01:30:54;98904.66;;;9.55;75.77
35848;BME280;22332;51.954;20.118;2022-09-17T01:34:07;98905.06;;;9.56;75.71
35848;BME280;22332;51.954;20.118;2022-09-17T01:37:18;98904.80;;;9.59;75.77
35848;BME280;22332;51.954;20.118;2022-09-17T01:40:32;98907.71;;;9.58;75.72
35848;BME280;22332;51.954;20.118;2022-09-17T01:43:47;98904.98;;;9.57;75.84
35848;BME280;22332;51.954;20.118;2022-09-17T01:47:00;98906.34;;;9.55;75.93
35848;BME280;22332;51.954;20.118;2022-09-17T01:50:11;98909.21;;;9.50;76.08
35848;BME280;22332;51.954;20.118;2022-09-17T01:53:19;98901.95;;;9.47;76.19
35848;BME280;22332;51.954;20.118;2022-09-17T01:56:29;98901.69;;;9.46;76.29
35848;BME280;22332;51.954;20.118;2022-09-17T01:59:41;98900.54;;;9.48;76.32
35848;BME280;22332;51.954;20.118;2022-09-17T02:02:51;98902.80;;;9.50;76.08
35848;BME280;22332;51.954;20.118;2022-09-17T02:06:01;98900.05;;;9.51;76.43
35848;BME280;22332;51.954;20.118;2022-09-17T02:09:13;98904.02;;;9.50;76.63
35848;BME280;22332;51.954;20.118;2022-09-17T02:12:24;98900.84;;;9.49;76.35
35848;BME280;22332;51.954;20.118;2022-09-17T02:15:35;98898.82;;;9.43;76.44
35848;BME280;22332;51.954;20.118;2022-09-17T02:18:46;98898.74;;;9.39;76.64
35848;BME280;22332;51.954;20.118;2022-09-17T02:21:59;98892.98;;;9.38;76.76
35848;BME280;22332;51.954;20.118;2022-09-17T02:25:12;98896.70;;;9.38;76.58
35848;BME280;22332;51.954;20.118;2022-09-17T02:28:24;98899.40;;;9.41;76.61
35848;BME280;22332;51.954;20.118;2022-09-17T02:31:31;98894.28;;;9.40;76.75
35848;BME280;22332;51.954;20.118;2022-09-17T02:34:38;98896.21;;;9.39;76.86
35848;BME280;22332;51.954;20.118;2022-09-17T02:37:44;98897.55;;;9.34;76.69
35848;BME280;22332;51.954;20.118;2022-09-17T02:40:52;98897.45;;;9.27;76.80
35848;BME280;22332;51.954;20.118;2022-09-17T02:44:06;98896.42;;;9.22;76.99
35848;BME280;22332;51.954;20.118;2022-09-17T02:47:35;98891.77;;;9.23;77.00
35848;BME280;22332;51.954;20.118;2022-09-17T02:50:59;98885.95;;;9.24;76.94
35848;BME280;22332;51.954;20.118;2022-09-17T02:54:10;98889.34;;;9.25;77.03
35848;BME280;22332;51.954;20.118;2022-09-17T02:57:26;98888.30;;;9.23;76.86
35848;BME280;22332;51.954;20.118;2022-09-17T03:00:34;98890.98;;;9.19;77.07
35848;BME280;22332;51.954;20.118;2022-09-17T03:03:43;98887.95;;;9.14;77.04
35848;BME280;22332;51.954;20.118;2022-09-17T03:06:52;98894.71;;;9.11;77.18
35848;BME280;22332;51.954;20.118;2022-09-17T03:09:57;98896.13;;;9.06;77.13
35848;BME280;22332;51.954;20.118;2022-09-17T03:13:03;98890.33;;;9.02;77.27
35848;BME280;22332;51.954;20.118;2022-09-17T03:16:09;98893.95;;;9.04;77.33
35848;BME280;22332;51.954;20.118;2022-09-17T03:19:14;98894.01;;;9.04;77.39
35848;BME280;22332;51.954;20.118;2022-09-17T03:22:20;98892.27;;;9.06;77.21
35848;BME280;22332;51.954;20.118;2022-09-17T03:25:25;98887.94;;;9.03;77.24
35848;BME280;22332;51.954;20.118;2022-09-17T03:28:30;98882.23;;;9.00;77.18
35848;BME280;22332;51.954;20.118;2022-09-17T03:31:36;98883.06;;;8.96;77.40
35848;BME280;22332;51.954;20.118;2022-09-17T03:34:41;98883.06;;;8.92;77.44
35848;BME280;22332;51.954;20.118;2022-09-17T03:37:46;98881.29;;;8.89;77.40
35848;BME280;22332;51.954;20.118;2022-09-17T03:40:59;98881.88;;;8.88;77.59
35848;BME280;22332;51.954;20.118;2022-09-17T03:44:05;98884.01;;;8.90;77.66
35848;BME280;22332;51.954;20.118;2022-09-17T03:47:10;98879.18;;;8.88;77.63
35848;BME280;22332;51.954;20.118;2022-09-17T03:50:16;98871.17;;;8.87;77.66
35848;BME280;22332;51.954;20.118;2022-09-17T03:53:22;98874.33;;;8.83;77.72
35848;BME280;22332;51.954;20.118;2022-09-17T03:56:27;98876.75;;;8.79;77.88
35848;BME280;22332;51.954;20.118;2022-09-17T03:59:33;98872.25;;;8.76;77.86
35848;BME280;22332;51.954;20.118;2022-09-17T04:02:38;98872.31;;;8.71;78.05
35848;BME280;22332;51.954;20.118;2022-09-17T04:05:43;98868.73;;;8.70;78.24
35848;BME280;22332;51.954;20.118;2022-09-17T04:08:49;98866.05;;;8.73;78.29
35848;BME280;22332;51.954;20.118;2022-09-17T04:11:54;98866.13;;;8.77;78.28
35848;BME280;22332;51.954;20.118;2022-09-17T04:15:00;98868.00;;;8.79;78.46
35848;BME280;22332;51.954;20.118;2022-09-17T04:18:06;98869.69;;;8.82;78.31
35848;BME280;22332;51.954;20.118;2022-09-17T04:21:11;98873.17;;;8.82;78.32
35848;BME280;22332;51.954;20.118;2022-09-17T04:24:16;98875.23;;;8.83;78.55
35848;BME280;22332;51.954;20.118;2022-09-17T04:27:22;98875.76;;;8.84;78.35
35848;BME280;22332;51.954;20.118;2022-09-17T04:30:27;98876.96;;;8.88;78.22
35848;BME280;22332;51.954;20.118;2022-09-17T04:33:33;98876.80;;;8.92;78.24
35848;BME280;22332;51.954;20.118;2022-09-17T04:36:38;98875.83;;;8.95;78.31
35848;BME280;22332;51.954;20.118;2022-09-17T04:39:43;98880.19;;;8.98;78.38
35848;BME280;22332;51.954;20.118;2022-09-17T04:42:49;98878.80;;;9.01;78.38
35848;BME280;22332;51.954;20.118;2022-09-17T04:45:56;98876.27;;;9.03;78.47
35848;BME280;22332;51.954;20.118;2022-09-17T04:49:02;98882.60;;;9.10;78.53
35848;BME280;22332;51.954;20.118;2022-09-17T04:52:07;98883.10;;;9.24;78.84
35848;BME280;22332;51.954;20.118;2022-09-17T04:55:13;98884.38;;;9.42;78.90
35848;BME280;22332;51.954;20.118;2022-09-17T04:58:18;98877.88;;;9.60;78.94
35848;BME280;22332;51.954;20.118;2022-09-17T05:01:24;98883.05;;;9.76;78.64
35848;BME280;22332;51.954;20.118;2022-09-17T05:04:29;98885.30;;;9.90;78.46
35848;BME280;22332;51.954;20.118;2022-09-17T05:07:35;98882.09;;;10.00;78.38
35848;BME280;22332;51.954;20.118;2022-09-17T05:10:42;98884.34;;;10.12;78.58
35848;BME280;22332;51.954;20.118;2022-09-17T05:13:48;98885.16;;;10.21;78.76
35848;BME280;22332;51.954;20.118;2022-09-17T05:16:53;98882.09;;;10.29;78.56
35848;BME280;22332;51.954;20.118;2022-09-17T05:19:59;98877.77;;;10.37;78.38
35848;BME280;22332;51.954;20.118;2022-09-17T05:23:05;98880.29;;;10.47;78.43
35848;BME280;22332;51.954;20.118;2022-09-17T05:26:10;98878.33;;;10.56;78.04
35848;BME280;22332;51.954;20.118;2022-09-17T05:29:15;98876.91;;;10.63;78.15
35848;BME280;22332;51.954;20.118;2022-09-17T05:32:21;98874.58;;;10.68;78.01
35848;BME280;22332;51.954;20.118;2022-09-17T05:35:26;98874.53;;;10.72;78.09
35848;BME280;22332;51.954;20.118;2022-09-17T05:38:33;98875.44;;;10.78;77.90
35848;BME280;22332;51.954;20.118;2022-09-17T05:41:38;98870.41;;;10.84;77.75
35848;BME280;22332;51.954;20.118;2022-09-17T05:44:44;98872.27;;;10.89;77.88
35848;BME280;22332;51.954;20.118;2022-09-17T05:47:55;98870.20;;;10.96;77.64
35848;BME280;22332;51.954;20.118;2022-09-17T05:51:00;98871.77;;;11.05;77.79
35848;BME280;22332;51.954;20.118;2022-09-17T05:54:06;98872.44;;;11.14;78.08
35848;BME280;22332;51.954;20.118;2022-09-17T05:57:12;98866.73;;;11.23;77.62
35848;BME280;22332;51.954;20.118;2022-09-17T06:00:19;98858.58;;;11.32;77.72
35848;BME280;22332;51.954;20.118;2022-09-17T06:03:24;98861.64;;;11.42;77.65
35848;BME280;22332;51.954;20.118;2022-09-17T06:06:30;98858.48;;;11.45;77.31
35848;BME280;22332;51.954;20.118;2022-09-17T06:09:36;98859.25;;;11.41;77.50
35848;BME280;22332;51.954;20.118;2022-09-17T06:12:41;98859.52;;;11.44;77.57
35848;BME280;22332;51.954;20.118;2022-09-17T06:15:51;98856.52;;;11.50;77.30
35848;BME280;22332;51.954;20.118;2022-09-17T06:18:57;98858.52;;;11.57;77.15
35848;BME280;22332;51.954;20.118;2022-09-17T06:22:02;98865.45;;;11.62;76.94
35848;BME280;22332;51.954;20.118;2022-09-17T06:25:09;98862.75;;;11.63;76.80
35848;BME280;22332;51.954;20.118;2022-09-17T06:28:15;98863.17;;;11.67;76.91
35848;BME280;22332;51.954;20.118;2022-09-17T06:31:20;98863.98;;;11.80;76.76
35848;BME280;22332;51.954;20.118;2022-09-17T06:34:25;98858.52;;;11.90;76.57
35848;BME280;22332;51.954;20.118;2022-09-17T06:37:32;98852.90;;;11.99;76.61
35848;BME280;22332;51.954;20.118;2022-09-17T06:40:39;98857.64;;;12.06;76.52
35848;BME280;22332;51.954;20.118;2022-09-17T06:43:44;98860.98;;;12.22;76.58
35848;BME280;22332;51.954;20.118;2022-09-17T06:46:50;98856.36;;;12.41;76.47
35848;BME280;22332;51.954;20.118;2022-09-17T06:49:56;98864.73;;;12.52;76.23
35848;BME280;22332;51.954;20.118;2022-09-17T06:53:03;98862.27;;;12.63;75.81
35848;BME280;22332;51.954;20.118;2022-09-17T06:56:09;98865.89;;;12.79;75.90
35848;BME280;22332;51.954;20.118;2022-09-17T06:59:14;98859.82;;;12.91;75.49
35848;BME280;22332;51.954;20.118;2022-09-17T07:02:20;98860.34;;;13.01;75.50
35848;BME280;22332;51.954;20.118;2022-09-17T07:05:27;98866.24;;;13.04;75.47
35848;BME280;22332;51.954;20.118;2022-09-17T07:08:33;98865.58;;;13.02;75.32
35848;BME280;22332;51.954;20.118;2022-09-17T07:11:39;98872.16;;;12.97;75.62
35848;BME280;22332;51.954;20.118;2022-09-17T07:14:44;98878.43;;;13.05;75.82
35848;BME280;22332;51.954;20.118;2022-09-17T07:17:50;98883.27;;;13.13;75.39
35848;BME280;22332;51.954;20.118;2022-09-17T07:20:57;98888.64;;;13.14;75.37
35848;BME280;22332;51.954;20.118;2022-09-17T07:24:04;98886.20;;;13.15;75.30
35848;BME280;22332;51.954;20.118;2022-09-17T07:27:09;98891.27;;;13.15;75.41
35848;BME280;22332;51.954;20.118;2022-09-17T07:30:15;98892.71;;;13.20;75.37
35848;BME280;22332;51.954;20.118;2022-09-17T07:33:22;98892.77;;;13.27;75.26
35848;BME280;22332;51.954;20.118;2022-09-17T07:36:28;98891.08;;;13.28;75.21
35848;BME280;22332;51.954;20.118;2022-09-17T07:39:33;98889.73;;;13.26;74.99
35848;BME280;22332;51.954;20.118;2022-09-17T07:42:39;98885.45;;;13.30;75.23
35848;BME280;22332;51.954;20.118;2022-09-17T07:45:44;98884.71;;;13.40;75.06
35848;BME280;22332;51.954;20.118;2022-09-17T07:48:50;98880.09;;;13.53;75.35
35848;BME280;22332;51.954;20.118;2022-09-17T07:51:55;98880.98;;;13.66;75.03
35848;BME280;22332;51.954;20.118;2022-09-17T07:55:00;98882.60;;;13.63;74.47
35848;BME280;22332;51.954;20.118;2022-09-17T07:58:06;98880.65;;;13.59;74.57
35848;BME280;22332;51.954;20.118;2022-09-17T08:01:12;98881.53;;;13.65;74.67
35848;BME280;22332;51.954;20.118;2022-09-17T08:04:19;98877.90;;;13.68;74.60
35848;BME280;22332;51.954;20.118;2022-09-17T08:07:25;98879.05;;;13.71;74.57
35848;BME280;22332;51.954;20.118;2022-09-17T08:10:30;98882.76;;;13.71;74.66
35848;BME280;22332;51.954;20.118;2022-09-17T08:13:36;98892.70;;;13.73;74.45
35848;BME280;22332;51.954;20.118;2022-09-17T08:16:42;98903.41;;;13.69;74.38
35848;BME280;22332;51.954;20.118;2022-09-17T08:19:49;98910.60;;;13.58;74.58
35848;BME280;22332;51.954;20.118;2022-09-17T08:23:00;98925.19;;;13.52;74.57
35848;BME280;22332;51.954;20.118;2022-09-17T08:26:06;98927.86;;;13.42;74.69
35848;BME280;22332;51.954;20.118;2022-09-17T08:29:12;98919.40;;;13.40;74.74
35848;BME280;22332;51.954;20.118;2022-09-17T08:32:17;98922.02;;;13.33;74.68
35848;BME280;22332;51.954;20.118;2022-09-17T08:35:23;98920.32;;;13.29;74.59
35848;BME280;22332;51.954;20.118;2022-09-17T08:38:32;98919.09;;;13.31;74.57
35848;BME280;22332;51.954;20.118;2022-09-17T08:41:49;98918.30;;;13.37;74.70
35848;BME280;22332;51.954;20.118;2022-09-17T08:44:57;98915.03;;;13.45;74.40
35848;BME280;22332;51.954;20.118;2022-09-17T08:48:04;98916.23;;;13.42;74.40
35848;BME280;22332;51.954;20.118;2022-09-17T08:51:20;98919.83;;;13.46;74.70
35848;BME280;22332;51.954;20.118;2022-09-17T08:54:35;98918.52;;;13.57;74.74
35848;BME280;22332;51.954;20.118;2022-09-17T08:57:49;98919.17;;;13.64;74.71
35848;BME280;22332;51.954;20.118;2022-09-17T09:01:01;98924.40;;;13.66;74.84
35848;BME280;22332;51.954;20.118;2022-09-17T09:04:32;98926.59;;;13.64;75.05
35848;BME280;22332;51.954;20.118;2022-09-17T09:07:43;98931.30;;;13.77;75.10
35848;BME280;22332;51.954;20.118;2022-09-17T09:10:53;98932.86;;;13.89;75.06
35848;BME280;22332;51.954;20.118;2022-09-17T09:14:05;98923.50;;;13.96;74.75
35848;BME280;22332;51.954;20.118;2022-09-17T09:17:12;98919.20;;;14.02;74.99
35848;BME280;22332;51.954;20.118;2022-09-17T09:20:25;98917.17;;;14.24;75.11
35848;BME280;22332;51.954;20.118;2022-09-17T09:23:43;98915.45;;;14.58;74.97
35848;BME280;22332;51.954;20.118;2022-09-17T09:27:02;98915.10;;;14.86;74.60
35848;BME280;22332;51.954;20.118;2022-09-17T09:30:16;98916.30;;;14.96;73.66
35848;BME280;22332;51.954;20.118;2022-09-17T09:33:29;98911.92;;;14.85;74.04
35848;BME280;22332;51.954;20.118;2022-09-17T09:36:38;98907.92;;;14.94;74.14
35848;BME280;22332;51.954;20.118;2022-09-17T09:39:46;98912.36;;;14.89;73.39
35848;BME280;22332;51.954;20.118;2022-09-17T09:42:58;98909.02;;;14.79;73.71
35848;BME280;22332;51.954;20.118;2022-09-17T09:46:27;98907.64;;;14.74;73.29
35848;BME280;22332;51.954;20.118;2022-09-17T09:49:47;98900.20;;;14.82;73.79
35848;BME280;22332;51.954;20.118;2022-09-17T09:53:08;98894.44;;;15.03;73.54
35848;BME280;22332;51.954;20.118;2022-09-17T09:56:37;98893.83;;;15.29;73.17
35848;BME280;22332;51.954;20.118;2022-09-17T09:59:48;98901.41;;;15.54;72.99
35848;BME280;22332;51.954;20.118;2022-09-17T10:02:56;98899.20;;;15.70;70.08
35848;BME280;22332;51.954;20.118;2022-09-17T10:06:06;98901.55;;;15.38;70.41
35848;BME280;22332;51.954;20.118;2022-09-17T10:09:13;98907.73;;;15.20;70.94
35848;BME280;22332;51.954;20.118;2022-09-17T10:12:19;98914.11;;;15.03;71.28
35848;BME280;22332;51.954;20.118;2022-09-17T10:15:27;98917.50;;;14.85;71.08
35848;BME280;22332;51.954;20.118;2022-09-17T10:18:33;98920.41;;;14.72;71.53
35848;BME280;22332;51.954;20.118;2022-09-17T10:21:39;98929.48;;;14.59;71.53
35848;BME280;22332;51.954;20.118;2022-09-17T10:24:48;98938.41;;;14.37;71.62
35848;BME280;22332;51.954;20.118;2022-09-17T10:27:55;98944.05;;;14.21;71.87
35848;BME280;22332;51.954;20.118;2022-09-17T10:31:03;98951.30;;;14.09;72.16
35848;BME280;22332;51.954;20.118;2022-09-17T10:34:19;98953.90;;;14.07;72.29
35848;BME280;22332;51.954;20.118;2022-09-17T10:37:40;98953.34;;;14.22;72.19
35848;BME280;22332;51.954;20.118;2022-09-17T10:40:47;98957.19;;;14.45;71.99
35848;BME280;22332;51.954;20.118;2022-09-17T10:43:52;98959.36;;;14.74;72.48
35848;BME280;22332;51.954;20.118;2022-09-17T10:47:05;98961.17;;;15.08;72.09
35848;BME280;22332;51.954;20.118;2022-09-17T10:50:18;98967.73;;;15.23;70.88
35848;BME280;22332;51.954;20.118;2022-09-17T10:53:25;98963.60;;;15.08;71.42
35848;BME280;22332;51.954;20.118;2022-09-17T10:56:34;98969.38;;;15.18;71.78
35848;BME280;22332;51.954;20.118;2022-09-17T11:00:02;98966.65;;;15.27;70.73
35848;BME280;22332;51.954;20.118;2022-09-17T11:10:39;98952.23;;;15.57;70.66
35848;BME280;22332;51.954;20.118;2022-09-17T11:13:50;98954.73;;;15.55;70.03
35848;BME280;22332;51.954;20.118;2022-09-17T11:17:05;98956.97;;;15.48;70.51
35848;BME280;22332;51.954;20.118;2022-09-17T11:20:22;98948.58;;;15.54;70.03
35848;BME280;22332;51.954;20.118;2022-09-17T11:23:47;98944.30;;;15.51;69.78
35848;BME280;22332;51.954;20.118;2022-09-17T11:27:07;98939.30;;;15.42;69.29
35848;BME280;22332;51.954;20.118;2022-09-17T11:30:20;98944.91;;;15.38;68.57
35848;BME280;22332;51.954;20.118;2022-09-17T11:37:03;98950.27;;;15.48;69.02
35848;BME280;22332;51.954;20.118;2022-09-17T11:40:14;98950.41;;;15.56;69.26
35848;BME280;22332;51.954;20.118;2022-09-17T11:43:26;98950.64;;;15.84;69.85
35848;BME280;22332;51.954;20.118;2022-09-17T11:46:36;98952.38;;;16.14;68.94
35848;BME280;22332;51.954;20.118;2022-09-17T11:49:47;98951.31;;;16.13;66.91
35848;BME280;22332;51.954;20.118;2022-09-17T11:53:02;98952.36;;;15.87;67.34
35848;BME280;22332;51.954;20.118;2022-09-17T11:56:17;98945.63;;;15.67;67.82
35848;BME280;22332;51.954;20.118;2022-09-17T11:59:32;98948.70;;;15.53;68.22
35848;BME280;22332;51.954;20.118;2022-09-17T12:02:46;98945.49;;;15.36;68.23
35848;BME280;22332;51.954;20.118;2022-09-17T12:05:57;98949.27;;;15.22;68.95
35848;BME280;22332;51.954;20.118;2022-09-17T12:09:11;98948.33;;;15.12;68.95
35848;BME280;22332;51.954;20.118;2022-09-17T12:12:20;98950.23;;;15.17;69.39
35848;BME280;22332;51.954;20.118;2022-09-17T12:15:29;98949.86;;;15.25;68.71
35848;BME280;22332;51.954;20.118;2022-09-17T12:18:50;98951.73;;;15.15;68.69
35848;BME280;22332;51.954;20.118;2022-09-17T12:22:00;98947.20;;;15.07;68.80
35848;BME280;22332;51.954;20.118;2022-09-17T12:25:13;98949.68;;;15.05;68.73
35848;BME280;22332;51.954;20.118;2022-09-17T12:28:22;98952.07;;;15.07;68.78
35848;BME280;22332;51.954;20.118;2022-09-17T12:31:34;98944.61;;;14.95;68.65
35848;BME280;22332;51.954;20.118;2022-09-17T12:34:49;98940.29;;;15.00;69.02
35848;BME280;22332;51.954;20.118;2022-09-17T12:38:10;98938.15;;;15.13;68.93
35848;BME280;22332;51.954;20.118;2022-09-17T12:41:22;98934.41;;;15.17;68.80
35848;BME280;22332;51.954;20.118;2022-09-17T12:44:46;98936.16;;;15.07;68.47
35848;BME280;22332;51.954;20.118;2022-09-17T12:48:05;98936.08;;;14.92;68.70
35848;BME280;22332;51.954;20.118;2022-09-17T12:51:27;98939.52;;;14.87;69.23
35848;BME280;22332;51.954;20.118;2022-09-17T12:54:50;98943.73;;;15.05;69.41
35848;BME280;22332;51.954;20.118;2022-09-17T12:58:03;98934.90;;;15.19;69.19
35848;BME280;22332;51.954;20.118;2022-09-17T13:01:16;98934.44;;;15.27;69.37
35848;BME280;22332;51.954;20.118;2022-09-17T13:08:03;98929.19;;;15.21;69.35
35848;BME280;22332;51.954;20.118;2022-09-17T13:11:47;98929.46;;;15.00;69.33
35848;BME280;22332;51.954;20.118;2022-09-17T13:15:05;98930.92;;;14.81;69.79
35848;BME280;22332;51.954;20.118;2022-09-17T13:18:25;98936.64;;;14.85;69.96
35848;BME280;22332;51.954;20.118;2022-09-17T13:21:37;98940.25;;;14.97;69.98
35848;BME280;22332;51.954;20.118;2022-09-17T13:24:46;98938.13;;;15.11;69.92
35848;BME280;22332;51.954;20.118;2022-09-17T13:28:05;98943.80;;;15.12;69.86
35848;BME280;22332;51.954;20.118;2022-09-17T13:31:12;98943.81;;;14.97;69.72
35848;BME280;22332;51.954;20.118;2022-09-17T13:34:30;98938.00;;;14.73;70.05
35848;BME280;22332;51.954;20.118;2022-09-17T13:37:40;98938.04;;;14.58;70.49
35848;BME280;22332;51.954;20.118;2022-09-17T13:40:46;98947.70;;;14.50;70.51
35848;BME280;22332;51.954;20.118;2022-09-17T13:43:52;98946.64;;;14.49;70.76
35848;BME280;22332;51.954;20.118;2022-09-17T13:47:11;98943.54;;;14.56;70.84
35848;BME280;22332;51.954;20.118;2022-09-17T13:50:26;98937.13;;;14.77;70.97
35848;BME280;22332;51.954;20.118;2022-09-17T13:53:32;98930.77;;;15.01;70.84
35848;BME280;22332;51.954;20.118;2022-09-17T13:56:44;98930.41;;;15.21;70.65
35848;BME280;22332;51.954;20.118;2022-09-17T13:59:55;98932.81;;;15.35;70.58
35848;BME280;22332;51.954;20.118;2022-09-17T14:06:52;98927.61;;;15.46;70.38
35848;BME280;22332;51.954;20.118;2022-09-17T14:09:58;98924.17;;;15.54;70.29
35848;BME280;22332;51.954;20.118;2022-09-17T14:13:33;98920.35;;;15.50;70.38
35848;BME280;22332;51.954;20.118;2022-09-17T14:16:49;98917.45;;;15.51;70.42
35848;BME280;22332;51.954;20.118;2022-09-17T14:19:55;98919.69;;;15.45;70.41
35848;BME280;22332;51.954;20.118;2022-09-17T14:23:02;98920.80;;;15.34;70.16
35848;BME280;22332;51.954;20.118;2022-09-17T14:26:13;98920.20;;;15.27;70.47
35848;BME280;22332;51.954;20.118;2022-09-17T14:29:34;98917.61;;;15.33;70.59
35848;BME280;22332;51.954;20.118;2022-09-17T14:32:50;98912.42;;;15.36;70.65
35848;BME280;22332;51.954;20.118;2022-09-17T14:36:00;98919.68;;;15.39;70.59
35848;BME280;22332;51.954;20.118;2022-09-17T14:39:17;98918.45;;;15.44;70.51
35848;BME280;22332;51.954;20.118;2022-09-17T14:42:29;98918.77;;;15.45;70.54
35848;BME280;22332;51.954;20.118;2022-09-17T14:45:41;98915.44;;;15.49;70.62
35848;BME280;22332;51.954;20.118;2022-09-17T14:48:47;98917.47;;;15.53;70.44
35848;BME280;22332;51.954;20.118;2022-09-17T14:51:54;98920.95;;;15.53;70.45
35848;BME280;22332;51.954;20.118;2022-09-17T14:55:25;98917.93;;;15.54;70.49
35848;BME280;22332;51.954;20.118;2022-09-17T14:58:35;98916.83;;;15.50;70.45
35848;BME280;22332;51.954;20.118;2022-09-17T15:01:46;98915.08;;;15.47;70.63
35848;BME280;22332;51.954;20.118;2022-09-17T15:04:52;98905.21;;;15.45;70.78
35848;BME280;22332;51.954;20.118;2022-09-17T15:08:13;98901.75;;;15.42;70.58
35848;BME280;22332;51.954;20.118;2022-09-17T15:11:20;98899.10;;;15.36;70.67
35848;BME280;22332;51.954;20.118;2022-09-17T15:14:28;98890.83;;;15.33;70.84
35848;BME280;22332;51.954;20.118;2022-09-17T15:17:35;98880.12;;;15.31;70.95
35848;BME280;22332;51.954;20.118;2022-09-17T15:20:40;98876.33;;;15.31;70.95
35848;BME280;22332;51.954;20.118;2022-09-17T15:23:46;98877.95;;;15.35;71.14
35848;BME280;22332;51.954;20.118;2022-09-17T15:26:56;98881.66;;;15.35;70.95
35848;BME280;22332;51.954;20.118;2022-09-17T15:30:08;98889.35;;;15.38;71.13
35848;BME280;22332;51.954;20.118;2022-09-17T15:33:15;98895.38;;;15.36;70.97
35848;BME280;22332;51.954;20.118;2022-09-17T15:36:23;98895.91;;;15.32;71.15
35848;BME280;22332;51.954;20.118;2022-09-17T15:39:36;98896.42;;;15.25;71.00
35848;BME280;22332;51.954;20.118;2022-09-17T15:42:48;98900.55;;;15.18;70.86
35848;BME280;22332;51.954;20.118;2022-09-17T15:45:55;98912.31;;;15.15;71.16
35848;BME280;22332;51.954;20.118;2022-09-17T15:49:03;98922.18;;;15.10;71.24
35848;BME280;22332;51.954;20.118;2022-09-17T15:52:27;98919.45;;;15.06;71.24
35848;BME280;22332;51.954;20.118;2022-09-17T15:55:38;98919.80;;;15.00;71.36
35848;BME280;22332;51.954;20.118;2022-09-17T15:58:55;98921.59;;;14.96;71.22
35848;BME280;22332;51.954;20.118;2022-09-17T16:02:02;98919.04;;;14.92;71.34
35848;BME280;22332;51.954;20.118;2022-09-17T16:08:50;98903.77;;;14.89;71.49
35848;BME280;22332;51.954;20.118;2022-09-17T16:11:56;98896.98;;;14.83;71.48
35848;BME280;22332;51.954;20.118;2022-09-17T16:15:01;98902.05;;;14.75;71.59
35848;BME280;22332;51.954;20.118;2022-09-17T16:18:12;98902.08;;;14.65;71.80
35848;BME280;22332;51.954;20.118;2022-09-17T16:21:19;98897.83;;;14.55;71.97
35848;BME280;22332;51.954;20.118;2022-09-17T16:24:24;98895.33;;;14.47;71.98
35848;BME280;22332;51.954;20.118;2022-09-17T16:27:32;98905.79;;;14.40;72.15
35848;BME280;22332;51.954;20.118;2022-09-17T16:30:42;98912.42;;;14.32;72.24
35848;BME280;22332;51.954;20.118;2022-09-17T16:33:49;98910.41;;;14.26;72.28
35848;BME280;22332;51.954;20.118;2022-09-17T16:36:54;98907.82;;;14.23;72.41
35848;BME280;22332;51.954;20.118;2022-09-17T16:40:00;98913.44;;;14.20;72.69
35848;BME280;22332;51.954;20.118;2022-09-17T16:43:05;98917.40;;;14.16;72.84
35848;BME280;22332;51.954;20.118;2022-09-17T16:46:13;98918.19;;;14.11;72.87
35848;BME280;22332;51.954;20.118;2022-09-17T16:49:23;98924.56;;;14.03;73.18
35848;BME280;22332;51.954;20.118;2022-09-17T16:52:28;98929.10;;;13.96;73.07
35848;BME280;22332;51.954;20.118;2022-09-17T16:55:34;98927.34;;;13.90;73.47
35848;BME280;22332;51.954;20.118;2022-09-17T16:58:39;98927.14;;;13.83;73.50
35848;BME280;22332;51.954;20.118;2022-09-17T17:01:45;98924.54;;;13.79;73.62
35848;BME280;22332;51.954;20.118;2022-09-17T17:04:53;98923.41;;;13.76;73.52